sensor_id;sensor_type;location;lat;lon;timestamp;P1;durP1;ratioP1;P2;durP2;ratioP2
17361;SDS011;8798;51.938;4.348;2024-01-30T00:00:34;7.90;;;5.10;;
17361;SDS011;8798;51.938;4.348;2024-01-30T00:03:02;8.23;;;5.13;;
17361;SDS011;8798;51.938;4.348;2024-01-30T00:05:31;8.90;;;5.30;;
17361;SDS011;8798;51.938;4.348;2024-01-30T00:07:59;12.10;;;5.00;;
17361;SDS011;8798;51.938;4.348;2024-01-30T00:10:27;8.50;;;5.03;;
17361;SDS011;8798;51.938;4.348;2024-01-30T00:12:55;9.07;;;5.47;;
17361;SDS011;8798;51.938;4.348;2024-01-30T00:15:23;9.67;;;5.13;;
17361;SDS011;8798;51.938;4.348;2024-01-30T00:17:51;11.53;;;5.33;;
17361;SDS011;8798;51.938;4.348;2024-01-30T00:20:20;9.40;;;4.90;;
17361;SDS011;8798;51.938;4.348;2024-01-30T00:22:49;8.03;;;5.00;;
17361;SDS011;8798;51.938;4.348;2024-01-30T00:25:17;8.27;;;4.80;;
17361;SDS011;8798;51.938;4.348;2024-01-30T00:27:45;11.37;;;4.80;;
17361;SDS011;8798;51.938;4.348;2024-01-30T00:30:14;8.67;;;5.10;;
17361;SDS011;8798;51.938;4.348;2024-01-30T00:32:42;8.13;;;4.50;;
17361;SDS011;8798;51.938;4.348;2024-01-30T00:35:10;10.27;;;5.27;;
17361;SDS011;8798;51.938;4.348;2024-01-30T00:37:38;8.17;;;4.93;;
17361;SDS011;8798;51.938;4.348;2024-01-30T00:40:08;9.47;;;4.67;;
17361;SDS011;8798;51.938;4.348;2024-01-30T00:42:41;7.67;;;4.70;;
17361;SDS011;8798;51.938;4.348;2024-01-30T00:45:11;9.93;;;5.13;;
17361;SDS011;8798;51.938;4.348;2024-01-30T00:47:40;8.87;;;4.90;;
17361;SDS011;8798;51.938;4.348;2024-01-30T00:50:08;8.90;;;4.73;;
17361;SDS011;8798;51.938;4.348;2024-01-30T00:52:36;10.40;;;4.70;;
17361;SDS011;8798;51.938;4.348;2024-01-30T00:55:05;7.30;;;4.60;;
17361;SDS011;8798;51.938;4.348;2024-01-30T00:57:35;8.73;;;5.30;;
17361;SDS011;8798;51.938;4.348;2024-01-30T01:00:03;12.57;;;5.10;;
17361;SDS011;8798;51.938;4.348;2024-01-30T01:02:34;7.63;;;4.57;;
17361;SDS011;8798;51.938;4.348;2024-01-30T01:05:02;9.27;;;5.13;;
17361;SDS011;8798;51.938;4.348;2024-01-30T01:07:31;9.20;;;4.67;;
17361;SDS011;8798;51.938;4.348;2024-01-30T01:09:59;8.47;;;4.70;;
17361;SDS011;8798;51.938;4.348;2024-01-30T01:12:27;8.30;;;4.57;;
17361;SDS011;8798;51.938;4.348;2024-01-30T01:14:56;8.70;;;4.60;;
17361;SDS011;8798;51.938;4.348;2024-01-30T01:17:24;11.07;;;5.07;;
17361;SDS011;8798;51.938;4.348;2024-01-30T01:19:52;8.77;;;4.77;;
17361;SDS011;8798;51.938;4.348;2024-01-30T01:22:20;8.10;;;4.67;;
17361;SDS011;8798;51.938;4.348;2024-01-30T01:24:49;6.40;;;4.53;;
17361;SDS011;8798;51.938;4.348;2024-01-30T01:27:17;9.13;;;5.07;;
17361;SDS011;8798;51.938;4.348;2024-01-30T01:29:45;7.80;;;4.67;;
17361;SDS011;8798;51.938;4.348;2024-01-30T01:32:14;7.03;;;4.50;;
17361;SDS011;8798;51.938;4.348;2024-01-30T01:34:42;7.47;;;4.57;;
17361;SDS011;8798;51.938;4.348;2024-01-30T01:37:10;7.53;;;4.17;;
17361;SDS011;8798;51.938;4.348;2024-01-30T01:39:38;10.63;;;4.97;;
17361;SDS011;8798;51.938;4.348;2024-01-30T01:42:06;9.00;;;4.83;;
17361;SDS011;8798;51.938;4.348;2024-01-30T01:44:34;9.27;;;4.90;;
17361;SDS011;8798;51.938;4.348;2024-01-30T01:47:02;8.13;;;4.50;;
17361;SDS011;8798;51.938;4.348;2024-01-30T01:49:32;9.80;;;4.90;;
17361;SDS011;8798;51.938;4.348;2024-01-30T01:52:00;9.03;;;4.33;;
17361;SDS011;8798;51.938;4.348;2024-01-30T01:54:28;12.23;;;5.13;;
17361;SDS011;8798;51.938;4.348;2024-01-30T01:56:57;9.23;;;4.50;;
17361;SDS011;8798;51.938;4.348;2024-01-30T01:59:25;6.20;;;3.90;;
17361;SDS011;8798;51.938;4.348;2024-01-30T02:01:54;9.57;;;4.63;;
17361;SDS011;8798;51.938;4.348;2024-01-30T02:04:23;8.43;;;4.80;;
17361;SDS011;8798;51.938;4.348;2024-01-30T02:06:54;7.97;;;4.50;;
17361;SDS011;8798;51.938;4.348;2024-01-30T02:09:23;10.07;;;5.30;;
17361;SDS011;8798;51.938;4.348;2024-01-30T02:11:51;8.07;;;4.50;;
17361;SDS011;8798;51.938;4.348;2024-01-30T02:14:19;10.53;;;4.70;;
17361;SDS011;8798;51.938;4.348;2024-01-30T02:16:47;7.70;;;4.37;;
17361;SDS011;8798;51.938;4.348;2024-01-30T02:19:14;11.73;;;4.97;;
17361;SDS011;8798;51.938;4.348;2024-01-30T02:21:44;7.20;;;4.77;;
17361;SDS011;8798;51.938;4.348;2024-01-30T02:24:13;8.80;;;4.67;;
17361;SDS011;8798;51.938;4.348;2024-01-30T02:26:41;10.93;;;4.50;;
17361;SDS011;8798;51.938;4.348;2024-01-30T02:29:09;7.23;;;4.70;;
17361;SDS011;8798;51.938;4.348;2024-01-30T02:31:37;6.77;;;4.37;;
17361;SDS011;8798;51.938;4.348;2024-01-30T02:34:05;7.53;;;4.70;;
17361;SDS011;8798;51.938;4.348;2024-01-30T02:36:33;8.47;;;4.43;;
17361;SDS011;8798;51.938;4.348;2024-01-30T02:39:02;8.83;;;4.70;;
17361;SDS011;8798;51.938;4.348;2024-01-30T02:41:31;6.50;;;4.77;;
17361;SDS011;8798;51.938;4.348;2024-01-30T02:43:59;11.27;;;4.97;;
17361;SDS011;8798;51.938;4.348;2024-01-30T02:46:27;7.93;;;4.23;;
17361;SDS011;8798;51.938;4.348;2024-01-30T02:48:55;7.90;;;4.40;;
17361;SDS011;8798;51.938;4.348;2024-01-30T02:51:23;9.53;;;4.53;;
17361;SDS011;8798;51.938;4.348;2024-01-30T02:53:51;7.10;;;4.40;;
17361;SDS011;8798;51.938;4.348;2024-01-30T02:56:21;10.20;;;4.90;;
17361;SDS011;8798;51.938;4.348;2024-01-30T02:58:49;6.90;;;4.23;;
17361;SDS011;8798;51.938;4.348;2024-01-30T03:01:17;10.10;;;4.90;;
17361;SDS011;8798;51.938;4.348;2024-01-30T03:03:45;7.07;;;4.13;;
17361;SDS011;8798;51.938;4.348;2024-01-30T03:06:13;8.43;;;4.40;;
17361;SDS011;8798;51.938;4.348;2024-01-30T03:08:43;10.17;;;4.80;;
17361;SDS011;8798;51.938;4.348;2024-01-30T03:11:12;6.33;;;4.13;;
17361;SDS011;8798;51.938;4.348;2024-01-30T03:13:41;10.53;;;4.67;;
17361;SDS011;8798;51.938;4.348;2024-01-30T03:16:09;8.20;;;4.90;;
17361;SDS011;8798;51.938;4.348;2024-01-30T03:18:37;7.97;;;4.37;;
17361;SDS011;8798;51.938;4.348;2024-01-30T03:21:05;10.40;;;5.17;;
17361;SDS011;8798;51.938;4.348;2024-01-30T03:23:33;10.47;;;4.60;;
17361;SDS011;8798;51.938;4.348;2024-01-30T03:26:01;9.07;;;5.00;;
17361;SDS011;8798;51.938;4.348;2024-01-30T03:28:30;10.13;;;4.70;;
17361;SDS011;8798;51.938;4.348;2024-01-30T03:31:00;10.27;;;4.57;;
17361;SDS011;8798;51.938;4.348;2024-01-30T03:33:28;11.13;;;4.47;;
17361;SDS011;8798;51.938;4.348;2024-01-30T03:35:56;7.17;;;4.40;;
17361;SDS011;8798;51.938;4.348;2024-01-30T03:38:24;8.23;;;4.23;;
17361;SDS011;8798;51.938;4.348;2024-01-30T03:40:52;7.23;;;4.30;;
17361;SDS011;8798;51.938;4.348;2024-01-30T03:43:20;12.20;;;5.20;;
17361;SDS011;8798;51.938;4.348;2024-01-30T03:45:48;10.13;;;4.43;;
17361;SDS011;8798;51.938;4.348;2024-01-30T03:48:18;8.03;;;4.67;;
17361;SDS011;8798;51.938;4.348;2024-01-30T03:50:48;6.10;;;4.40;;
17361;SDS011;8798;51.938;4.348;2024-01-30T03:53:17;7.70;;;4.63;;
17361;SDS011;8798;51.938;4.348;2024-01-30T03:55:45;9.67;;;4.33;;
17361;SDS011;8798;51.938;4.348;2024-01-30T03:58:13;13.13;;;4.97;;
17361;SDS011;8798;51.938;4.348;2024-01-30T04:00:41;9.27;;;4.43;;
17361;SDS011;8798;51.938;4.348;2024-01-30T04:03:09;6.80;;;4.20;;
17361;SDS011;8798;51.938;4.348;2024-01-30T04:05:38;8.10;;;4.50;;
17361;SDS011;8798;51.938;4.348;2024-01-30T04:08:06;9.70;;;5.00;;
17361;SDS011;8798;51.938;4.348;2024-01-30T04:10:34;10.30;;;4.80;;
17361;SDS011;8798;51.938;4.348;2024-01-30T04:13:02;6.63;;;4.20;;
17361;SDS011;8798;51.938;4.348;2024-01-30T04:15:30;9.13;;;5.00;;
17361;SDS011;8798;51.938;4.348;2024-01-30T04:17:59;9.03;;;4.47;;
17361;SDS011;8798;51.938;4.348;2024-01-30T04:20:27;7.13;;;4.30;;
17361;SDS011;8798;51.938;4.348;2024-01-30T04:22:56;8.23;;;4.27;;
17361;SDS011;8798;51.938;4.348;2024-01-30T04:25:24;9.33;;;4.30;;
17361;SDS011;8798;51.938;4.348;2024-01-30T04:27:52;7.50;;;4.73;;
17361;SDS011;8798;51.938;4.348;2024-01-30T04:30:20;7.53;;;4.13;;
17361;SDS011;8798;51.938;4.348;2024-01-30T04:32:48;9.80;;;4.97;;
17361;SDS011;8798;51.938;4.348;2024-01-30T04:35:16;11.07;;;5.13;;
17361;SDS011;8798;51.938;4.348;2024-01-30T04:37:47;6.50;;;4.00;;
17361;SDS011;8798;51.938;4.348;2024-01-30T04:40:16;7.93;;;4.40;;
17361;SDS011;8798;51.938;4.348;2024-01-30T04:42:45;13.07;;;5.00;;
17361;SDS011;8798;51.938;4.348;2024-01-30T04:45:13;7.50;;;4.47;;
17361;SDS011;8798;51.938;4.348;2024-01-30T04:47:41;9.20;;;4.77;;
17361;SDS011;8798;51.938;4.348;2024-01-30T04:50:09;8.70;;;4.67;;
17361;SDS011;8798;51.938;4.348;2024-01-30T04:52:37;9.80;;;4.33;;
17361;SDS011;8798;51.938;4.348;2024-01-30T04:55:05;8.03;;;5.20;;
17361;SDS011;8798;51.938;4.348;2024-01-30T04:57:36;9.17;;;4.50;;
17361;SDS011;8798;51.938;4.348;2024-01-30T05:00:04;7.13;;;4.30;;
17361;SDS011;8798;51.938;4.348;2024-01-30T05:02:33;7.40;;;4.00;;
17361;SDS011;8798;51.938;4.348;2024-01-30T05:05:01;9.90;;;4.70;;
17361;SDS011;8798;51.938;4.348;2024-01-30T05:07:30;9.47;;;4.60;;
17361;SDS011;8798;51.938;4.348;2024-01-30T05:09:58;11.40;;;4.87;;
17361;SDS011;8798;51.938;4.348;2024-01-30T05:12:31;12.07;;;4.50;;
17361;SDS011;8798;51.938;4.348;2024-01-30T05:15:00;9.63;;;4.33;;
17361;SDS011;8798;51.938;4.348;2024-01-30T05:17:29;9.00;;;4.83;;
17361;SDS011;8798;51.938;4.348;2024-01-30T05:19:56;9.40;;;4.70;;
17361;SDS011;8798;51.938;4.348;2024-01-30T05:22:24;8.47;;;4.43;;
17361;SDS011;8798;51.938;4.348;2024-01-30T05:24:52;9.37;;;4.50;;
17361;SDS011;8798;51.938;4.348;2024-01-30T05:27:20;8.40;;;4.80;;
17361;SDS011;8798;51.938;4.348;2024-01-30T05:29:48;8.40;;;4.63;;
17361;SDS011;8798;51.938;4.348;2024-01-30T05:32:18;8.33;;;4.80;;
17361;SDS011;8798;51.938;4.348;2024-01-30T05:34:46;9.63;;;4.83;;
17361;SDS011;8798;51.938;4.348;2024-01-30T05:37:14;7.17;;;4.40;;
17361;SDS011;8798;51.938;4.348;2024-01-30T05:39:44;9.97;;;4.63;;
17361;SDS011;8798;51.938;4.348;2024-01-30T05:42:12;6.57;;;4.47;;
17361;SDS011;8798;51.938;4.348;2024-01-30T05:44:41;8.67;;;4.77;;
17361;SDS011;8798;51.938;4.348;2024-01-30T05:47:09;7.67;;;4.50;;
17361;SDS011;8798;51.938;4.348;2024-01-30T05:49:38;7.10;;;4.43;;
17361;SDS011;8798;51.938;4.348;2024-01-30T05:52:06;7.37;;;4.53;;
17361;SDS011;8798;51.938;4.348;2024-01-30T05:54:34;8.10;;;4.80;;
17361;SDS011;8798;51.938;4.348;2024-01-30T05:57:03;7.43;;;4.10;;
17361;SDS011;8798;51.938;4.348;2024-01-30T05:59:31;7.70;;;4.40;;
17361;SDS011;8798;51.938;4.348;2024-01-30T06:01:59;9.13;;;4.73;;
17361;SDS011;8798;51.938;4.348;2024-01-30T06:04:27;8.37;;;4.77;;
17361;SDS011;8798;51.938;4.348;2024-01-30T06:06:57;9.50;;;4.30;;
17361;SDS011;8798;51.938;4.348;2024-01-30T06:09:28;8.67;;;4.80;;
17361;SDS011;8798;51.938;4.348;2024-01-30T06:11:57;9.80;;;4.37;;
17361;SDS011;8798;51.938;4.348;2024-01-30T06:14:25;7.10;;;4.37;;
17361;SDS011;8798;51.938;4.348;2024-01-30T06:16:53;7.83;;;4.00;;
17361;SDS011;8798;51.938;4.348;2024-01-30T06:19:21;7.00;;;4.20;;
17361;SDS011;8798;51.938;4.348;2024-01-30T06:21:49;9.47;;;4.60;;
17361;SDS011;8798;51.938;4.348;2024-01-30T06:24:22;8.00;;;4.43;;
17361;SDS011;8798;51.938;4.348;2024-01-30T06:26:50;7.53;;;4.70;;
17361;SDS011;8798;51.938;4.348;2024-01-30T06:29:18;10.00;;;4.77;;
17361;SDS011;8798;51.938;4.348;2024-01-30T06:31:47;15.53;;;4.73;;
17361;SDS011;8798;51.938;4.348;2024-01-30T06:34:15;9.87;;;4.80;;
17361;SDS011;8798;51.938;4.348;2024-01-30T06:36:43;9.47;;;4.40;;
17361;SDS011;8798;51.938;4.348;2024-01-30T06:39:11;9.47;;;4.37;;
17361;SDS011;8798;51.938;4.348;2024-01-30T06:41:41;8.73;;;4.47;;
17361;SDS011;8798;51.938;4.348;2024-01-30T06:44:09;9.97;;;4.73;;
17361;SDS011;8798;51.938;4.348;2024-01-30T06:46:36;8.43;;;4.80;;
17361;SDS011;8798;51.938;4.348;2024-01-30T06:49:04;10.67;;;4.63;;
17361;SDS011;8798;51.938;4.348;2024-01-30T06:51:32;9.00;;;4.57;;
17361;SDS011;8798;51.938;4.348;2024-01-30T06:54:00;8.80;;;5.23;;
17361;SDS011;8798;51.938;4.348;2024-01-30T06:56:29;10.17;;;4.57;;
17361;SDS011;8798;51.938;4.348;2024-01-30T06:58:58;9.47;;;5.40;;
17361;SDS011;8798;51.938;4.348;2024-01-30T07:01:27;8.70;;;4.73;;
17361;SDS011;8798;51.938;4.348;2024-01-30T07:03:57;8.13;;;4.80;;
17361;SDS011;8798;51.938;4.348;2024-01-30T07:06:25;7.30;;;4.53;;
17361;SDS011;8798;51.938;4.348;2024-01-30T07:08:53;12.80;;;4.90;;
17361;SDS011;8798;51.938;4.348;2024-01-30T07:11:22;9.60;;;4.70;;
17361;SDS011;8798;51.938;4.348;2024-01-30T07:13:50;11.30;;;4.40;;
17361;SDS011;8798;51.938;4.348;2024-01-30T07:16:20;12.20;;;4.40;;
17361;SDS011;8798;51.938;4.348;2024-01-30T07:18:48;9.50;;;4.77;;
17361;SDS011;8798;51.938;4.348;2024-01-30T07:21:17;7.87;;;4.13;;
17361;SDS011;8798;51.938;4.348;2024-01-30T07:23:45;8.83;;;4.53;;
17361;SDS011;8798;51.938;4.348;2024-01-30T07:26:13;9.87;;;4.43;;
17361;SDS011;8798;51.938;4.348;2024-01-30T07:28:41;13.80;;;4.67;;
17361;SDS011;8798;51.938;4.348;2024-01-30T07:31:10;10.03;;;4.53;;
17361;SDS011;8798;51.938;4.348;2024-01-30T07:33:40;8.43;;;4.40;;
17361;SDS011;8798;51.938;4.348;2024-01-30T07:36:11;7.67;;;4.50;;
17361;SDS011;8798;51.938;4.348;2024-01-30T07:38:39;11.73;;;5.00;;
17361;SDS011;8798;51.938;4.348;2024-01-30T07:41:07;9.90;;;4.40;;
17361;SDS011;8798;51.938;4.348;2024-01-30T07:43:35;8.40;;;4.67;;
17361;SDS011;8798;51.938;4.348;2024-01-30T07:46:03;8.53;;;4.67;;
17361;SDS011;8798;51.938;4.348;2024-01-30T07:48:32;11.80;;;4.63;;
17361;SDS011;8798;51.938;4.348;2024-01-30T07:51:02;12.67;;;4.73;;
17361;SDS011;8798;51.938;4.348;2024-01-30T07:53:30;8.63;;;4.80;;
17361;SDS011;8798;51.938;4.348;2024-01-30T07:55:58;9.57;;;4.87;;
17361;SDS011;8798;51.938;4.348;2024-01-30T07:58:26;8.53;;;4.57;;
17361;SDS011;8798;51.938;4.348;2024-01-30T08:00:55;9.70;;;4.93;;
17361;SDS011;8798;51.938;4.348;2024-01-30T08:03:25;14.57;;;5.00;;
17361;SDS011;8798;51.938;4.348;2024-01-30T08:05:58;12.10;;;4.60;;
17361;SDS011;8798;51.938;4.348;2024-01-30T08:08:27;11.17;;;4.80;;
17361;SDS011;8798;51.938;4.348;2024-01-30T08:10:55;10.17;;;4.93;;
17361;SDS011;8798;51.938;4.348;2024-01-30T08:13:23;11.27;;;4.90;;
17361;SDS011;8798;51.938;4.348;2024-01-30T08:15:51;14.33;;;5.03;;
17361;SDS011;8798;51.938;4.348;2024-01-30T08:18:19;10.47;;;4.87;;
17361;SDS011;8798;51.938;4.348;2024-01-30T08:20:47;11.60;;;4.37;;
17361;SDS011;8798;51.938;4.348;2024-01-30T08:23:16;10.47;;;5.00;;
17361;SDS011;8798;51.938;4.348;2024-01-30T08:25:45;10.50;;;4.97;;
17361;SDS011;8798;51.938;4.348;2024-01-30T08:28:13;9.77;;;4.70;;
17361;SDS011;8798;51.938;4.348;2024-01-30T08:30:44;9.87;;;4.60;;
17361;SDS011;8798;51.938;4.348;2024-01-30T08:33:12;8.80;;;4.57;;
17361;SDS011;8798;51.938;4.348;2024-01-30T08:35:40;11.73;;;5.40;;
17361;SDS011;8798;51.938;4.348;2024-01-30T08:38:08;11.50;;;4.90;;
17361;SDS011;8798;51.938;4.348;2024-01-30T08:40:38;8.90;;;5.30;;
17361;SDS011;8798;51.938;4.348;2024-01-30T08:43:08;13.10;;;4.97;;
17361;SDS011;8798;51.938;4.348;2024-01-30T08:45:37;7.57;;;4.83;;
17361;SDS011;8798;51.938;4.348;2024-01-30T08:48:05;7.87;;;4.93;;
17361;SDS011;8798;51.938;4.348;2024-01-30T08:50:34;11.77;;;5.70;;
17361;SDS011;8798;51.938;4.348;2024-01-30T08:53:02;12.33;;;5.20;;
17361;SDS011;8798;51.938;4.348;2024-01-30T08:55:30;8.87;;;4.70;;
17361;SDS011;8798;51.938;4.348;2024-01-30T08:57:59;9.60;;;4.87;;
17361;SDS011;8798;51.938;4.348;2024-01-30T09:00:28;13.17;;;5.53;;
17361;SDS011;8798;51.938;4.348;2024-01-30T09:02:56;8.90;;;4.23;;
17361;SDS011;8798;51.938;4.348;2024-01-30T09:05:24;9.33;;;4.80;;
17361;SDS011;8798;51.938;4.348;2024-01-30T09:07:52;7.43;;;4.00;;
17361;SDS011;8798;51.938;4.348;2024-01-30T09:10:21;5.87;;;3.37;;
17361;SDS011;8798;51.938;4.348;2024-01-30T09:12:49;9.23;;;3.30;;
17361;SDS011;8798;51.938;4.348;2024-01-30T09:15:17;7.27;;;3.20;;
17361;SDS011;8798;51.938;4.348;2024-01-30T09:17:48;10.30;;;3.17;;
17361;SDS011;8798;51.938;4.348;2024-01-30T09:20:17;8.13;;;2.97;;
17361;SDS011;8798;51.938;4.348;2024-01-30T09:22:46;6.57;;;3.03;;
17361;SDS011;8798;51.938;4.348;2024-01-30T09:25:15;12.60;;;3.07;;
17361;SDS011;8798;51.938;4.348;2024-01-30T09:27:45;7.10;;;2.90;;
17361;SDS011;8798;51.938;4.348;2024-01-30T09:30:15;7.57;;;2.50;;
17361;SDS011;8798;51.938;4.348;2024-01-30T09:32:44;12.90;;;2.70;;
17361;SDS011;8798;51.938;4.348;2024-01-30T09:35:14;6.90;;;2.40;;
17361;SDS011;8798;51.938;4.348;2024-01-30T09:37:42;8.30;;;2.30;;
17361;SDS011;8798;51.938;4.348;2024-01-30T09:40:10;9.53;;;2.10;;
17361;SDS011;8798;51.938;4.348;2024-01-30T09:42:39;7.10;;;2.10;;
17361;SDS011;8798;51.938;4.348;2024-01-30T09:45:10;6.47;;;1.87;;
17361;SDS011;8798;51.938;4.348;2024-01-30T09:47:41;11.70;;;2.27;;
17361;SDS011;8798;51.938;4.348;2024-01-30T09:50:11;5.43;;;1.37;;
17361;SDS011;8798;51.938;4.348;2024-01-30T09:52:42;8.13;;;1.83;;
17361;SDS011;8798;51.938;4.348;2024-01-30T09:55:10;6.37;;;1.50;;
17361;SDS011;8798;51.938;4.348;2024-01-30T09:57:39;6.37;;;1.60;;
17361;SDS011;8798;51.938;4.348;2024-01-30T10:00:09;6.00;;;1.63;;
17361;SDS011;8798;51.938;4.348;2024-01-30T10:02:38;8.20;;;1.63;;
17361;SDS011;8798;51.938;4.348;2024-01-30T10:05:07;6.13;;;1.77;;
17361;SDS011;8798;51.938;4.348;2024-01-30T10:07:36;5.47;;;1.60;;
17361;SDS011;8798;51.938;4.348;2024-01-30T10:10:06;5.70;;;1.40;;
17361;SDS011;8798;51.938;4.348;2024-01-30T10:12:35;7.87;;;1.27;;
17361;SDS011;8798;51.938;4.348;2024-01-30T10:15:03;6.43;;;1.00;;
17361;SDS011;8798;51.938;4.348;2024-01-30T10:17:37;5.23;;;1.10;;
17361;SDS011;8798;51.938;4.348;2024-01-30T10:20:08;4.97;;;1.10;;
17361;SDS011;8798;51.938;4.348;2024-01-30T10:22:37;4.20;;;0.97;;
17361;SDS011;8798;51.938;4.348;2024-01-30T10:25:07;3.87;;;0.97;;
17361;SDS011;8798;51.938;4.348;2024-01-30T10:27:35;4.40;;;1.40;;
17361;SDS011;8798;51.938;4.348;2024-01-30T10:30:03;5.97;;;1.17;;
17361;SDS011;8798;51.938;4.348;2024-01-30T10:32:32;4.10;;;0.80;;
17361;SDS011;8798;51.938;4.348;2024-01-30T10:35:00;5.17;;;1.40;;
17361;SDS011;8798;51.938;4.348;2024-01-30T10:37:28;6.13;;;1.73;;
17361;SDS011;8798;51.938;4.348;2024-01-30T10:40:00;4.57;;;1.17;;
17361;SDS011;8798;51.938;4.348;2024-01-30T10:42:33;3.43;;;1.03;;
17361;SDS011;8798;51.938;4.348;2024-01-30T10:45:05;3.30;;;1.27;;
17361;SDS011;8798;51.938;4.348;2024-01-30T10:47:35;4.67;;;1.60;;
17361;SDS011;8798;51.938;4.348;2024-01-30T10:50:05;5.90;;;1.40;;
17361;SDS011;8798;51.938;4.348;2024-01-30T10:52:34;6.60;;;1.13;;
17361;SDS011;8798;51.938;4.348;2024-01-30T10:55:03;3.77;;;1.10;;
17361;SDS011;8798;51.938;4.348;2024-01-30T10:57:35;2.20;;;0.70;;
17361;SDS011;8798;51.938;4.348;2024-01-30T11:00:04;4.60;;;1.00;;
17361;SDS011;8798;51.938;4.348;2024-01-30T11:02:37;6.03;;;1.07;;
17361;SDS011;8798;51.938;4.348;2024-01-30T11:05:07;2.40;;;0.73;;
17361;SDS011;8798;51.938;4.348;2024-01-30T11:07:36;4.60;;;1.17;;
17361;SDS011;8798;51.938;4.348;2024-01-30T11:10:06;3.43;;;0.97;;
17361;SDS011;8798;51.938;4.348;2024-01-30T11:12:39;3.53;;;0.97;;
17361;SDS011;8798;51.938;4.348;2024-01-30T11:15:11;4.43;;;1.13;;
17361;SDS011;8798;51.938;4.348;2024-01-30T11:17:41;6.83;;;1.40;;
17361;SDS011;8798;51.938;4.348;2024-01-30T11:20:11;6.60;;;1.10;;
17361;SDS011;8798;51.938;4.348;2024-01-30T11:22:41;4.10;;;0.73;;
17361;SDS011;8798;51.938;4.348;2024-01-30T11:25:11;5.37;;;1.10;;
17361;SDS011;8798;51.938;4.348;2024-01-30T11:27:42;4.50;;;1.20;;
17361;SDS011;8798;51.938;4.348;2024-01-30T11:30:20;5.97;;;1.10;;
17361;SDS011;8798;51.938;4.348;2024-01-30T11:32:59;4.33;;;1.00;;
17361;SDS011;8798;51.938;4.348;2024-01-30T11:35:29;2.17;;;0.87;;
17361;SDS011;8798;51.938;4.348;2024-01-30T11:37:58;7.10;;;0.90;;
17361;SDS011;8798;51.938;4.348;2024-01-30T11:40:28;5.43;;;1.13;;
17361;SDS011;8798;51.938;4.348;2024-01-30T11:42:59;4.23;;;1.00;;
17361;SDS011;8798;51.938;4.348;2024-01-30T11:45:28;9.63;;;1.43;;
17361;SDS011;8798;51.938;4.348;2024-01-30T11:47:56;5.33;;;0.90;;
17361;SDS011;8798;51.938;4.348;2024-01-30T11:50:26;4.60;;;0.83;;
17361;SDS011;8798;51.938;4.348;2024-01-30T11:52:58;8.63;;;1.20;;
17361;SDS011;8798;51.938;4.348;2024-01-30T11:55:27;3.73;;;0.87;;
17361;SDS011;8798;51.938;4.348;2024-01-30T11:58:02;2.27;;;0.80;;
17361;SDS011;8798;51.938;4.348;2024-01-30T12:00:30;6.03;;;0.97;;
17361;SDS011;8798;51.938;4.348;2024-01-30T12:03:00;3.23;;;0.80;;
17361;SDS011;8798;51.938;4.348;2024-01-30T12:05:30;9.53;;;1.27;;
17361;SDS011;8798;51.938;4.348;2024-01-30T12:07:58;3.93;;;0.87;;
17361;SDS011;8798;51.938;4.348;2024-01-30T12:10:28;2.63;;;0.80;;
17361;SDS011;8798;51.938;4.348;2024-01-30T12:12:56;4.83;;;0.90;;
17361;SDS011;8798;51.938;4.348;2024-01-30T12:15:26;5.60;;;1.00;;
17361;SDS011;8798;51.938;4.348;2024-01-30T12:18:03;6.70;;;1.17;;
17361;SDS011;8798;51.938;4.348;2024-01-30T12:20:31;6.30;;;0.93;;
17361;SDS011;8798;51.938;4.348;2024-01-30T12:23:00;3.27;;;1.20;;
17361;SDS011;8798;51.938;4.348;2024-01-30T12:25:28;4.97;;;1.10;;
17361;SDS011;8798;51.938;4.348;2024-01-30T12:27:57;2.70;;;0.87;;
17361;SDS011;8798;51.938;4.348;2024-01-30T12:30:27;5.53;;;1.17;;
17361;SDS011;8798;51.938;4.348;2024-01-30T12:32:56;4.80;;;0.93;;
17361;SDS011;8798;51.938;4.348;2024-01-30T12:35:24;6.33;;;1.60;;
17361;SDS011;8798;51.938;4.348;2024-01-30T12:37:57;6.07;;;1.30;;
17361;SDS011;8798;51.938;4.348;2024-01-30T12:40:25;10.60;;;1.53;;
17361;SDS011;8798;51.938;4.348;2024-01-30T12:42:53;7.43;;;1.30;;
17361;SDS011;8798;51.938;4.348;2024-01-30T12:45:22;5.90;;;1.00;;
17361;SDS011;8798;51.938;4.348;2024-01-30T12:47:51;4.47;;;1.20;;
17361;SDS011;8798;51.938;4.348;2024-01-30T12:50:19;9.63;;;1.07;;
17361;SDS011;8798;51.938;4.348;2024-01-30T12:52:48;4.97;;;0.90;;
17361;SDS011;8798;51.938;4.348;2024-01-30T12:55:17;5.33;;;1.03;;
17361;SDS011;8798;51.938;4.348;2024-01-30T12:57:45;7.20;;;1.30;;
17361;SDS011;8798;51.938;4.348;2024-01-30T13:00:13;8.20;;;1.30;;
17361;SDS011;8798;51.938;4.348;2024-01-30T13:02:43;4.47;;;0.87;;
17361;SDS011;8798;51.938;4.348;2024-01-30T13:05:13;6.53;;;1.13;;
17361;SDS011;8798;51.938;4.348;2024-01-30T13:07:41;5.63;;;1.20;;
17361;SDS011;8798;51.938;4.348;2024-01-30T13:10:10;5.17;;;1.00;;
17361;SDS011;8798;51.938;4.348;2024-01-30T13:12:38;5.00;;;1.07;;
17361;SDS011;8798;51.938;4.348;2024-01-30T13:15:06;7.73;;;1.20;;
17361;SDS011;8798;51.938;4.348;2024-01-30T13:17:35;3.47;;;0.73;;
17361;SDS011;8798;51.938;4.348;2024-01-30T13:20:04;4.73;;;0.87;;
17361;SDS011;8798;51.938;4.348;2024-01-30T13:22:39;4.80;;;1.20;;
17361;SDS011;8798;51.938;4.348;2024-01-30T13:25:07;10.50;;;1.30;;
17361;SDS011;8798;51.938;4.348;2024-01-30T13:27:35;6.87;;;1.13;;
17361;SDS011;8798;51.938;4.348;2024-01-30T13:30:04;8.80;;;1.47;;
17361;SDS011;8798;51.938;4.348;2024-01-30T13:32:34;5.47;;;1.00;;
17361;SDS011;8798;51.938;4.348;2024-01-30T13:35:03;2.87;;;1.00;;
17361;SDS011;8798;51.938;4.348;2024-01-30T13:37:31;5.37;;;1.13;;
17361;SDS011;8798;51.938;4.348;2024-01-30T13:40:01;4.67;;;1.33;;
17361;SDS011;8798;51.938;4.348;2024-01-30T13:42:32;3.90;;;1.33;;
17361;SDS011;8798;51.938;4.348;2024-01-30T13:45:00;4.13;;;1.27;;
17361;SDS011;8798;51.938;4.348;2024-01-30T13:47:28;5.07;;;1.13;;
17361;SDS011;8798;51.938;4.348;2024-01-30T13:49:56;6.53;;;1.50;;
17361;SDS011;8798;51.938;4.348;2024-01-30T13:52:25;2.93;;;1.13;;
17361;SDS011;8798;51.938;4.348;2024-01-30T13:55:02;5.67;;;1.20;;
17361;SDS011;8798;51.938;4.348;2024-01-30T13:57:30;6.07;;;1.60;;
17361;SDS011;8798;51.938;4.348;2024-01-30T14:00:01;7.53;;;1.27;;
17361;SDS011;8798;51.938;4.348;2024-01-30T14:02:31;5.87;;;1.53;;
17361;SDS011;8798;51.938;4.348;2024-01-30T14:04:59;4.30;;;1.30;;
17361;SDS011;8798;51.938;4.348;2024-01-30T14:07:28;6.43;;;1.50;;
17361;SDS011;8798;51.938;4.348;2024-01-30T14:09:56;5.10;;;1.50;;
17361;SDS011;8798;51.938;4.348;2024-01-30T14:12:25;5.47;;;1.40;;
17361;SDS011;8798;51.938;4.348;2024-01-30T14:14:53;6.03;;;1.57;;
17361;SDS011;8798;51.938;4.348;2024-01-30T14:17:22;5.60;;;1.50;;
17361;SDS011;8798;51.938;4.348;2024-01-30T14:19:50;4.03;;;1.63;;
17361;SDS011;8798;51.938;4.348;2024-01-30T14:22:18;6.23;;;1.30;;
17361;SDS011;8798;51.938;4.348;2024-01-30T14:24:46;2.13;;;1.20;;
17361;SDS011;8798;51.938;4.348;2024-01-30T14:27:14;5.73;;;1.63;;
17361;SDS011;8798;51.938;4.348;2024-01-30T14:29:43;6.20;;;1.67;;
17361;SDS011;8798;51.938;4.348;2024-01-30T14:32:11;5.87;;;1.40;;
17361;SDS011;8798;51.938;4.348;2024-01-30T14:34:40;4.23;;;1.40;;
17361;SDS011;8798;51.938;4.348;2024-01-30T14:37:08;2.63;;;1.13;;
17361;SDS011;8798;51.938;4.348;2024-01-30T14:39:37;4.67;;;1.27;;
17361;SDS011;8798;51.938;4.348;2024-01-30T14:42:07;2.00;;;1.30;;
17361;SDS011;8798;51.938;4.348;2024-01-30T14:44:35;4.47;;;1.50;;
17361;SDS011;8798;51.938;4.348;2024-01-30T14:47:04;6.07;;;1.77;;
17361;SDS011;8798;51.938;4.348;2024-01-30T14:49:33;4.67;;;1.60;;
17361;SDS011;8798;51.938;4.348;2024-01-30T14:52:01;6.47;;;1.50;;
17361;SDS011;8798;51.938;4.348;2024-01-30T14:54:30;3.90;;;1.77;;
17361;SDS011;8798;51.938;4.348;2024-01-30T14:56:59;4.90;;;1.93;;
17361;SDS011;8798;51.938;4.348;2024-01-30T14:59:27;5.47;;;1.90;;
17361;SDS011;8798;51.938;4.348;2024-01-30T15:01:55;7.03;;;2.00;;
17361;SDS011;8798;51.938;4.348;2024-01-30T15:04:26;7.53;;;2.20;;
17361;SDS011;8798;51.938;4.348;2024-01-30T15:06:54;5.20;;;1.83;;